• Join FlightAware (Why Join?)
  • Login
  • US Flag 
06:48AM EST


 

Airport Tracker/Info


-or-


 

Live Flight TrackerFlight Track Log ✈ BEE2226 ✈ 08-Sep-2013 ✈ EFTU / TKU - EFHK / HEL

Flight Track Log - Related Links

Times and Time Zones

All times are in EDT time to prevent confusion due to time zone crossing. See the BEE2226 flight status page for this flight to view local times or setup timezone preferences in your user account.

Time Position Orientation Groundspeed Altitude Reporting Facility
EDT Latitude Longitude Course Direction KTS MPH feet Rate Location/Type
10:16AM 60.4547 23.1645 97° East  Level Estimated
10:17AM 60.4336 23.4643 98° East  Level Estimated
10:18AM 60.4117 23.7638 98° East  Level Estimated
10:19AM 60.3892 24.0628 99° East  Level Estimated
10:20AM 60.3661 24.3614 99° East  Level Estimated
10:21AM 60.3422 24.6595 99° East  Level Estimated
10:22AM 60.3177 24.9572 99° East  Level Estimated
10:23AM 60.3172 24.9633 100° East  Level Estimated
10:24AM 60.3172 24.9633 37° Northeast  Level Estimated
10:25AM 60.3172 24.9633 37° Northeast  Level Estimated
10:26AM 60.3172 24.9633 37° Northeast  Level Estimated
10:27AM 60.3172 24.9633 37° Northeast  Level Estimated
10:28AM 60.3172 24.9633 37° Northeast  Level Estimated
10:29AM 60.3172 24.9633 37° Northeast  Level Estimated
10:30AM 60.3172 24.9633 37° Northeast  Level Estimated
10:31AM 60.3172 24.9633 37° Northeast  Level Estimated
10:32AM 60.3172 24.9633 37° Northeast  Level Estimated
10:33AM 60.3172 24.9633 37° Northeast  Level Estimated
10:34AM 60.3172 24.9633 37° Northeast  Level Estimated
10:35AM 60.3172 24.9633 37° Northeast  Level Estimated
10:36AM 60.3172 24.9633 37° Northeast  Level Estimated
10:37AM 60.3172 24.9633 37° Northeast  Level Estimated
10:38AM 60.3172 24.9633 37° Northeast  Level Estimated